Terminal Aerodrome Forecast
Issued by NWS Duluth, MN

Home | Current Version | Previous Version | Text Only | Print | Product List | Glossary On
Versions: 1 2 3 4 5 6 7 8 9 10 11 12 13 14 15 16 17 18 19 20 21 22 23 24
000
FTUS43 KDLH 211700
TAFINL
TAF
KINL 211725Z 2118/2218 11009KT P6SM BKN018 BKN040
      TEMPO 2118/2120 SCT020 BKN040
     FM212000 12008KT P6SM -SHRA VCTS SCT015CB BKN050
     FM220000 14006KT P6SM BKN015
     FM220700 VRB02KT 2SM BR OVC006
     FM221500 01003KT 5SM BR OVC008=

USA.gov is the U.S. government's official web portal to all federal, state and local government web resources and services.